sensor_id;sensor_type;location;lat;lon;timestamp;P1;durP1;ratioP1;P2;durP2;ratioP2
81006;SDS011;70472;47.592;17.640;2024-02-28T00:00:26;21.50;;;21.50;;
81006;SDS011;70472;47.592;17.640;2024-02-28T00:00:58;22.60;;;22.60;;
81006;SDS011;70472;47.592;17.640;2024-02-28T00:01:31;21.53;;;21.53;;
81006;SDS011;70472;47.592;17.640;2024-02-28T00:02:03;20.87;;;20.87;;
81006;SDS011;70472;47.592;17.640;2024-02-28T00:02:36;20.63;;;20.63;;
81006;SDS011;70472;47.592;17.640;2024-02-28T00:03:09;20.77;;;20.77;;
81006;SDS011;70472;47.592;17.640;2024-02-28T00:03:41;20.73;;;20.73;;
81006;SDS011;70472;47.592;17.640;2024-02-28T00:04:13;21.93;;;21.93;;
81006;SDS011;70472;47.592;17.640;2024-02-28T00:04:46;21.23;;;21.23;;
81006;SDS011;70472;47.592;17.640;2024-02-28T00:05:19;21.13;;;21.13;;
81006;SDS011;70472;47.592;17.640;2024-02-28T00:05:51;20.93;;;20.93;;
81006;SDS011;70472;47.592;17.640;2024-02-28T00:06:24;20.43;;;20.43;;
81006;SDS011;70472;47.592;17.640;2024-02-28T00:06:56;20.30;;;20.30;;
81006;SDS011;70472;47.592;17.640;2024-02-28T00:07:29;19.17;;;19.17;;
81006;SDS011;70472;47.592;17.640;2024-02-28T00:08:01;20.00;;;20.00;;
81006;SDS011;70472;47.592;17.640;2024-02-28T00:08:34;20.93;;;20.93;;
81006;SDS011;70472;47.592;17.640;2024-02-28T00:09:07;21.00;;;21.00;;
81006;SDS011;70472;47.592;17.640;2024-02-28T00:09:43;20.53;;;20.53;;
81006;SDS011;70472;47.592;17.640;2024-02-28T00:10:15;19.67;;;19.67;;
81006;SDS011;70472;47.592;17.640;2024-02-28T00:10:47;19.67;;;19.67;;
81006;SDS011;70472;47.592;17.640;2024-02-28T00:11:20;20.90;;;20.90;;
81006;SDS011;70472;47.592;17.640;2024-02-28T00:11:53;21.03;;;21.03;;
81006;SDS011;70472;47.592;17.640;2024-02-28T00:12:25;21.13;;;21.13;;
81006;SDS011;70472;47.592;17.640;2024-02-28T00:12:58;21.00;;;21.00;;
81006;SDS011;70472;47.592;17.640;2024-02-28T00:13:31;21.20;;;21.20;;
81006;SDS011;70472;47.592;17.640;2024-02-28T00:14:04;20.80;;;20.80;;
81006;SDS011;70472;47.592;17.640;2024-02-28T00:14:36;21.33;;;21.33;;
81006;SDS011;70472;47.592;17.640;2024-02-28T00:15:08;21.93;;;21.93;;
81006;SDS011;70472;47.592;17.640;2024-02-28T00:15:41;20.23;;;20.23;;
81006;SDS011;70472;47.592;17.640;2024-02-28T00:16:14;20.07;;;20.07;;
81006;SDS011;70472;47.592;17.640;2024-02-28T00:16:46;21.97;;;21.97;;
81006;SDS011;70472;47.592;17.640;2024-02-28T00:17:18;21.50;;;21.50;;
81006;SDS011;70472;47.592;17.640;2024-02-28T00:17:51;21.10;;;21.10;;
81006;SDS011;70472;47.592;17.640;2024-02-28T00:18:25;20.53;;;20.53;;
81006;SDS011;70472;47.592;17.640;2024-02-28T00:18:58;21.43;;;21.43;;
81006;SDS011;70472;47.592;17.640;2024-02-28T00:19:30;21.57;;;21.57;;
81006;SDS011;70472;47.592;17.640;2024-02-28T00:20:02;22.13;;;22.13;;
81006;SDS011;70472;47.592;17.640;2024-02-28T00:20:35;21.87;;;21.87;;
81006;SDS011;70472;47.592;17.640;2024-02-28T00:21:07;22.10;;;22.10;;
81006;SDS011;70472;47.592;17.640;2024-02-28T00:21:40;24.00;;;24.00;;
81006;SDS011;70472;47.592;17.640;2024-02-28T00:22:13;23.77;;;23.77;;
81006;SDS011;70472;47.592;17.640;2024-02-28T00:22:45;23.33;;;23.33;;
81006;SDS011;70472;47.592;17.640;2024-02-28T00:23:17;23.87;;;23.87;;
81006;SDS011;70472;47.592;17.640;2024-02-28T00:23:50;25.60;;;25.60;;
81006;SDS011;70472;47.592;17.640;2024-02-28T00:24:22;26.80;;;26.80;;
81006;SDS011;70472;47.592;17.640;2024-02-28T00:24:54;29.43;;;29.43;;
81006;SDS011;70472;47.592;17.640;2024-02-28T00:25:27;31.23;;;31.23;;
81006;SDS011;70472;47.592;17.640;2024-02-28T00:25:59;31.07;;;31.07;;
81006;SDS011;70472;47.592;17.640;2024-02-28T00:26:32;30.47;;;30.47;;
81006;SDS011;70472;47.592;17.640;2024-02-28T00:27:04;28.77;;;28.77;;
81006;SDS011;70472;47.592;17.640;2024-02-28T00:27:37;26.63;;;26.63;;
81006;SDS011;70472;47.592;17.640;2024-02-28T00:28:09;25.13;;;25.13;;
81006;SDS011;70472;47.592;17.640;2024-02-28T00:28:41;23.90;;;23.90;;
81006;SDS011;70472;47.592;17.640;2024-02-28T00:29:14;23.97;;;23.97;;
81006;SDS011;70472;47.592;17.640;2024-02-28T00:29:46;23.00;;;23.00;;
81006;SDS011;70472;47.592;17.640;2024-02-28T00:30:18;20.97;;;20.97;;
81006;SDS011;70472;47.592;17.640;2024-02-28T00:30:51;21.87;;;21.87;;
81006;SDS011;70472;47.592;17.640;2024-02-28T00:31:23;20.47;;;20.47;;
81006;SDS011;70472;47.592;17.640;2024-02-28T00:31:56;22.17;;;22.17;;
81006;SDS011;70472;47.592;17.640;2024-02-28T00:32:29;21.93;;;21.93;;
81006;SDS011;70472;47.592;17.640;2024-02-28T00:33:01;22.10;;;22.10;;
81006;SDS011;70472;47.592;17.640;2024-02-28T00:33:34;21.90;;;21.90;;
81006;SDS011;70472;47.592;17.640;2024-02-28T00:34:06;21.63;;;21.63;;
81006;SDS011;70472;47.592;17.640;2024-02-28T00:34:38;21.90;;;21.90;;
81006;SDS011;70472;47.592;17.640;2024-02-28T00:35:11;22.20;;;22.20;;
81006;SDS011;70472;47.592;17.640;2024-02-28T00:35:43;21.77;;;21.77;;
81006;SDS011;70472;47.592;17.640;2024-02-28T00:36:16;22.50;;;22.50;;
81006;SDS011;70472;47.592;17.640;2024-02-28T00:36:48;21.10;;;21.10;;
81006;SDS011;70472;47.592;17.640;2024-02-28T00:37:22;21.43;;;21.43;;
81006;SDS011;70472;47.592;17.640;2024-02-28T00:37:54;21.50;;;21.50;;
81006;SDS011;70472;47.592;17.640;2024-02-28T00:38:27;21.07;;;21.07;;
81006;SDS011;70472;47.592;17.640;2024-02-28T00:38:59;20.20;;;20.20;;
81006;SDS011;70472;47.592;17.640;2024-02-28T00:39:32;20.23;;;20.23;;
81006;SDS011;70472;47.592;17.640;2024-02-28T00:40:04;20.50;;;20.50;;
81006;SDS011;70472;47.592;17.640;2024-02-28T00:40:39;22.10;;;22.10;;
81006;SDS011;70472;47.592;17.640;2024-02-28T00:41:11;20.43;;;20.43;;
81006;SDS011;70472;47.592;17.640;2024-02-28T00:41:44;20.10;;;20.10;;
81006;SDS011;70472;47.592;17.640;2024-02-28T00:42:16;20.83;;;20.83;;
81006;SDS011;70472;47.592;17.640;2024-02-28T00:42:49;20.07;;;20.07;;
81006;SDS011;70472;47.592;17.640;2024-02-28T00:43:21;19.70;;;19.70;;
81006;SDS011;70472;47.592;17.640;2024-02-28T00:43:53;20.03;;;20.03;;
81006;SDS011;70472;47.592;17.640;2024-02-28T00:44:26;21.10;;;21.10;;
81006;SDS011;70472;47.592;17.640;2024-02-28T00:44:58;21.67;;;21.67;;
81006;SDS011;70472;47.592;17.640;2024-02-28T00:45:31;20.60;;;20.60;;
81006;SDS011;70472;47.592;17.640;2024-02-28T00:46:03;20.00;;;20.00;;
81006;SDS011;70472;47.592;17.640;2024-02-28T00:46:36;20.17;;;20.17;;
81006;SDS011;70472;47.592;17.640;2024-02-28T00:47:09;20.90;;;20.90;;
81006;SDS011;70472;47.592;17.640;2024-02-28T00:47:41;20.60;;;20.60;;
81006;SDS011;70472;47.592;17.640;2024-02-28T00:48:14;20.17;;;20.17;;
81006;SDS011;70472;47.592;17.640;2024-02-28T00:48:47;19.60;;;19.60;;
81006;SDS011;70472;47.592;17.640;2024-02-28T00:49:19;19.93;;;19.93;;
81006;SDS011;70472;47.592;17.640;2024-02-28T00:49:52;19.60;;;19.60;;
81006;SDS011;70472;47.592;17.640;2024-02-28T00:50:24;19.10;;;19.10;;
81006;SDS011;70472;47.592;17.640;2024-02-28T00:50:56;20.40;;;20.40;;
81006;SDS011;70472;47.592;17.640;2024-02-28T00:51:29;19.73;;;19.73;;
81006;SDS011;70472;47.592;17.640;2024-02-28T00:52:01;18.87;;;18.87;;
81006;SDS011;70472;47.592;17.640;2024-02-28T00:52:33;20.67;;;20.67;;
81006;SDS011;70472;47.592;17.640;2024-02-28T00:53:06;20.63;;;20.63;;
81006;SDS011;70472;47.592;17.640;2024-02-28T00:53:38;19.80;;;19.80;;
81006;SDS011;70472;47.592;17.640;2024-02-28T00:54:11;20.47;;;20.47;;
81006;SDS011;70472;47.592;17.640;2024-02-28T00:54:43;20.37;;;20.37;;
81006;SDS011;70472;47.592;17.640;2024-02-28T00:55:15;19.97;;;19.97;;
81006;SDS011;70472;47.592;17.640;2024-02-28T00:55:48;19.80;;;19.80;;
81006;SDS011;70472;47.592;17.640;2024-02-28T00:56:20;20.40;;;20.40;;
81006;SDS011;70472;47.592;17.640;2024-02-28T00:56:55;19.97;;;19.97;;
81006;SDS011;70472;47.592;17.640;2024-02-28T00:57:27;19.87;;;19.87;;
81006;SDS011;70472;47.592;17.640;2024-02-28T00:57:59;21.00;;;21.00;;
81006;SDS011;70472;47.592;17.640;2024-02-28T00:58:32;19.73;;;19.73;;
81006;SDS011;70472;47.592;17.640;2024-02-28T00:59:04;18.13;;;18.13;;
81006;SDS011;70472;47.592;17.640;2024-02-28T00:59:36;19.97;;;19.97;;
81006;SDS011;70472;47.592;17.640;2024-02-28T01:00:09;19.07;;;19.07;;
81006;SDS011;70472;47.592;17.640;2024-02-28T01:00:42;18.90;;;18.90;;
81006;SDS011;70472;47.592;17.640;2024-02-28T01:01:15;19.63;;;19.63;;
81006;SDS011;70472;47.592;17.640;2024-02-28T01:01:48;20.10;;;20.10;;
81006;SDS011;70472;47.592;17.640;2024-02-28T01:02:20;20.00;;;20.00;;
81006;SDS011;70472;47.592;17.640;2024-02-28T01:02:53;19.20;;;19.20;;
81006;SDS011;70472;47.592;17.640;2024-02-28T01:03:25;20.90;;;20.90;;
81006;SDS011;70472;47.592;17.640;2024-02-28T01:03:58;21.87;;;21.87;;
81006;SDS011;70472;47.592;17.640;2024-02-28T01:04:30;20.40;;;20.40;;
81006;SDS011;70472;47.592;17.640;2024-02-28T01:05:03;20.87;;;20.87;;
81006;SDS011;70472;47.592;17.640;2024-02-28T01:05:35;22.30;;;22.30;;
81006;SDS011;70472;47.592;17.640;2024-02-28T01:06:08;21.73;;;21.73;;
81006;SDS011;70472;47.592;17.640;2024-02-28T01:06:40;22.03;;;22.03;;
81006;SDS011;70472;47.592;17.640;2024-02-28T01:07:13;24.40;;;24.40;;
81006;SDS011;70472;47.592;17.640;2024-02-28T01:07:45;25.00;;;25.00;;
81006;SDS011;70472;47.592;17.640;2024-02-28T01:08:17;24.87;;;24.87;;
81006;SDS011;70472;47.592;17.640;2024-02-28T01:08:50;25.90;;;25.90;;
81006;SDS011;70472;47.592;17.640;2024-02-28T01:09:22;26.33;;;26.33;;
81006;SDS011;70472;47.592;17.640;2024-02-28T01:09:55;24.93;;;24.93;;
81006;SDS011;70472;47.592;17.640;2024-02-28T01:10:27;24.67;;;24.67;;
81006;SDS011;70472;47.592;17.640;2024-02-28T01:10:59;23.87;;;23.87;;
81006;SDS011;70472;47.592;17.640;2024-02-28T01:11:32;22.57;;;22.57;;
81006;SDS011;70472;47.592;17.640;2024-02-28T01:12:04;20.90;;;20.90;;
81006;SDS011;70472;47.592;17.640;2024-02-28T01:12:37;20.30;;;20.30;;
81006;SDS011;70472;47.592;17.640;2024-02-28T01:13:09;19.57;;;19.57;;
81006;SDS011;70472;47.592;17.640;2024-02-28T01:13:42;21.13;;;21.13;;
81006;SDS011;70472;47.592;17.640;2024-02-28T01:14:14;21.23;;;21.23;;
81006;SDS011;70472;47.592;17.640;2024-02-28T01:14:47;19.40;;;19.40;;
81006;SDS011;70472;47.592;17.640;2024-02-28T01:15:19;19.67;;;19.67;;
81006;SDS011;70472;47.592;17.640;2024-02-28T01:15:51;20.67;;;20.67;;
81006;SDS011;70472;47.592;17.640;2024-02-28T01:16:24;20.60;;;20.60;;
81006;SDS011;70472;47.592;17.640;2024-02-28T01:16:56;21.00;;;21.00;;
81006;SDS011;70472;47.592;17.640;2024-02-28T01:17:29;20.90;;;20.90;;
81006;SDS011;70472;47.592;17.640;2024-02-28T01:18:01;20.87;;;20.87;;
81006;SDS011;70472;47.592;17.640;2024-02-28T01:18:34;21.53;;;21.53;;
81006;SDS011;70472;47.592;17.640;2024-02-28T01:19:06;22.10;;;22.10;;
81006;SDS011;70472;47.592;17.640;2024-02-28T01:19:38;22.57;;;22.57;;
81006;SDS011;70472;47.592;17.640;2024-02-28T01:20:11;23.33;;;23.33;;
81006;SDS011;70472;47.592;17.640;2024-02-28T01:20:44;23.10;;;23.10;;
81006;SDS011;70472;47.592;17.640;2024-02-28T01:21:16;22.47;;;22.47;;
81006;SDS011;70472;47.592;17.640;2024-02-28T01:21:48;21.63;;;21.63;;
81006;SDS011;70472;47.592;17.640;2024-02-28T01:22:21;21.57;;;21.57;;
81006;SDS011;70472;47.592;17.640;2024-02-28T01:22:53;21.93;;;21.93;;
81006;SDS011;70472;47.592;17.640;2024-02-28T01:23:26;21.40;;;21.40;;
81006;SDS011;70472;47.592;17.640;2024-02-28T01:23:58;21.97;;;21.97;;
81006;SDS011;70472;47.592;17.640;2024-02-28T01:24:30;20.63;;;20.63;;
81006;SDS011;70472;47.592;17.640;2024-02-28T01:25:03;21.43;;;21.43;;
81006;SDS011;70472;47.592;17.640;2024-02-28T01:25:35;22.43;;;22.43;;
81006;SDS011;70472;47.592;17.640;2024-02-28T01:26:08;20.70;;;20.70;;
81006;SDS011;70472;47.592;17.640;2024-02-28T01:26:40;20.27;;;20.27;;
81006;SDS011;70472;47.592;17.640;2024-02-28T01:27:13;20.83;;;20.83;;
81006;SDS011;70472;47.592;17.640;2024-02-28T01:27:45;20.73;;;20.73;;
81006;SDS011;70472;47.592;17.640;2024-02-28T01:28:17;20.67;;;20.67;;
81006;SDS011;70472;47.592;17.640;2024-02-28T01:28:50;20.77;;;20.77;;
81006;SDS011;70472;47.592;17.640;2024-02-28T01:29:22;21.03;;;21.03;;
81006;SDS011;70472;47.592;17.640;2024-02-28T01:29:54;22.03;;;22.03;;
81006;SDS011;70472;47.592;17.640;2024-02-28T01:30:27;20.60;;;20.60;;
81006;SDS011;70472;47.592;17.640;2024-02-28T01:30:59;19.97;;;19.97;;
81006;SDS011;70472;47.592;17.640;2024-02-28T01:31:32;21.10;;;21.10;;
81006;SDS011;70472;47.592;17.640;2024-02-28T01:32:04;21.00;;;21.00;;
81006;SDS011;70472;47.592;17.640;2024-02-28T01:32:37;21.17;;;21.17;;
81006;SDS011;70472;47.592;17.640;2024-02-28T01:33:09;21.90;;;21.90;;
81006;SDS011;70472;47.592;17.640;2024-02-28T01:33:41;21.97;;;21.97;;
81006;SDS011;70472;47.592;17.640;2024-02-28T01:34:14;22.70;;;22.70;;
81006;SDS011;70472;47.592;17.640;2024-02-28T01:34:46;22.17;;;22.17;;
81006;SDS011;70472;47.592;17.640;2024-02-28T01:35:19;22.13;;;22.13;;
81006;SDS011;70472;47.592;17.640;2024-02-28T01:35:51;20.97;;;20.97;;
81006;SDS011;70472;47.592;17.640;2024-02-28T01:36:24;22.90;;;22.90;;
81006;SDS011;70472;47.592;17.640;2024-02-28T01:36:57;23.57;;;23.57;;
81006;SDS011;70472;47.592;17.640;2024-02-28T01:37:30;24.30;;;24.30;;
81006;SDS011;70472;47.592;17.640;2024-02-28T01:38:02;23.60;;;23.60;;
81006;SDS011;70472;47.592;17.640;2024-02-28T01:38:35;24.90;;;24.90;;
81006;SDS011;70472;47.592;17.640;2024-02-28T01:39:07;25.93;;;25.93;;
81006;SDS011;70472;47.592;17.640;2024-02-28T01:39:40;23.97;;;23.97;;
81006;SDS011;70472;47.592;17.640;2024-02-28T01:40:12;23.50;;;23.50;;
81006;SDS011;70472;47.592;17.640;2024-02-28T01:40:45;24.23;;;24.23;;
81006;SDS011;70472;47.592;17.640;2024-02-28T01:41:18;23.97;;;23.97;;
81006;SDS011;70472;47.592;17.640;2024-02-28T01:41:54;23.27;;;23.27;;
81006;SDS011;70472;47.592;17.640;2024-02-28T01:42:26;23.60;;;23.60;;
81006;SDS011;70472;47.592;17.640;2024-02-28T01:43:02;23.90;;;23.90;;
81006;SDS011;70472;47.592;17.640;2024-02-28T01:43:42;26.10;;;26.10;;
81006;SDS011;70472;47.592;17.640;2024-02-28T01:44:15;25.07;;;25.07;;
81006;SDS011;70472;47.592;17.640;2024-02-28T01:44:48;24.33;;;24.33;;
81006;SDS011;70472;47.592;17.640;2024-02-28T01:45:20;24.87;;;24.87;;
81006;SDS011;70472;47.592;17.640;2024-02-28T01:45:53;25.10;;;25.10;;
81006;SDS011;70472;47.592;17.640;2024-02-28T01:46:26;25.53;;;25.53;;
81006;SDS011;70472;47.592;17.640;2024-02-28T01:47:00;26.97;;;26.97;;
81006;SDS011;70472;47.592;17.640;2024-02-28T01:47:33;27.10;;;27.10;;
81006;SDS011;70472;47.592;17.640;2024-02-28T01:48:06;26.90;;;26.90;;
81006;SDS011;70472;47.592;17.640;2024-02-28T01:48:42;26.10;;;26.10;;
81006;SDS011;70472;47.592;17.640;2024-02-28T01:49:14;26.40;;;26.40;;
81006;SDS011;70472;47.592;17.640;2024-02-28T01:49:48;25.63;;;25.63;;
81006;SDS011;70472;47.592;17.640;2024-02-28T01:50:21;25.70;;;25.70;;
81006;SDS011;70472;47.592;17.640;2024-02-28T01:50:53;25.13;;;25.13;;
81006;SDS011;70472;47.592;17.640;2024-02-28T01:51:26;26.07;;;26.07;;
81006;SDS011;70472;47.592;17.640;2024-02-28T01:51:59;25.63;;;25.63;;
81006;SDS011;70472;47.592;17.640;2024-02-28T01:52:33;25.57;;;25.57;;
81006;SDS011;70472;47.592;17.640;2024-02-28T01:53:06;24.83;;;24.83;;
81006;SDS011;70472;47.592;17.640;2024-02-28T01:53:41;24.10;;;24.10;;
81006;SDS011;70472;47.592;17.640;2024-02-28T01:54:15;23.40;;;23.40;;
81006;SDS011;70472;47.592;17.640;2024-02-28T01:54:50;23.30;;;23.30;;
81006;SDS011;70472;47.592;17.640;2024-02-28T01:55:22;23.70;;;23.70;;
81006;SDS011;70472;47.592;17.640;2024-02-28T01:55:55;23.37;;;23.37;;
81006;SDS011;70472;47.592;17.640;2024-02-28T01:56:28;23.00;;;23.00;;
81006;SDS011;70472;47.592;17.640;2024-02-28T01:57:01;22.23;;;22.23;;
81006;SDS011;70472;47.592;17.640;2024-02-28T01:57:34;25.67;;;25.67;;
81006;SDS011;70472;47.592;17.640;2024-02-28T01:58:09;23.83;;;23.83;;
81006;SDS011;70472;47.592;17.640;2024-02-28T01:58:44;24.43;;;24.43;;
81006;SDS011;70472;47.592;17.640;2024-02-28T01:59:19;23.63;;;23.63;;
81006;SDS011;70472;47.592;17.640;2024-02-28T01:59:51;25.00;;;25.00;;
81006;SDS011;70472;47.592;17.640;2024-02-28T02:00:25;24.57;;;24.57;;
81006;SDS011;70472;47.592;17.640;2024-02-28T02:01:01;23.90;;;23.90;;
81006;SDS011;70472;47.592;17.640;2024-02-28T02:01:36;23.07;;;23.07;;
81006;SDS011;70472;47.592;17.640;2024-02-28T02:02:09;24.97;;;24.97;;
81006;SDS011;70472;47.592;17.640;2024-02-28T02:02:41;24.50;;;24.50;;
81006;SDS011;70472;47.592;17.640;2024-02-28T02:03:15;24.80;;;24.80;;
81006;SDS011;70472;47.592;17.640;2024-02-28T02:03:47;24.60;;;24.60;;
81006;SDS011;70472;47.592;17.640;2024-02-28T02:04:20;24.67;;;24.67;;
81006;SDS011;70472;47.592;17.640;2024-02-28T02:04:52;24.13;;;24.13;;
81006;SDS011;70472;47.592;17.640;2024-02-28T02:05:25;24.87;;;24.87;;
81006;SDS011;70472;47.592;17.640;2024-02-28T02:05:57;24.73;;;24.73;;
81006;SDS011;70472;47.592;17.640;2024-02-28T02:06:30;24.87;;;24.87;;
81006;SDS011;70472;47.592;17.640;2024-02-28T02:07:04;24.37;;;24.37;;
81006;SDS011;70472;47.592;17.640;2024-02-28T02:07:38;24.50;;;24.50;;
81006;SDS011;70472;47.592;17.640;2024-02-28T02:08:11;24.27;;;24.27;;
81006;SDS011;70472;47.592;17.640;2024-02-28T02:08:44;25.80;;;25.80;;
81006;SDS011;70472;47.592;17.640;2024-02-28T02:09:16;25.07;;;25.07;;
81006;SDS011;70472;47.592;17.640;2024-02-28T02:09:49;26.00;;;26.00;;
81006;SDS011;70472;47.592;17.640;2024-02-28T02:10:21;24.90;;;24.90;;
81006;SDS011;70472;47.592;17.640;2024-02-28T02:10:54;24.13;;;24.13;;
81006;SDS011;70472;47.592;17.640;2024-02-28T02:11:26;25.20;;;25.20;;
81006;SDS011;70472;47.592;17.640;2024-02-28T02:12:00;27.70;;;27.70;;
81006;SDS011;70472;47.592;17.640;2024-02-28T02:12:33;25.57;;;25.57;;
81006;SDS011;70472;47.592;17.640;2024-02-28T02:13:06;25.47;;;25.47;;
81006;SDS011;70472;47.592;17.640;2024-02-28T02:13:48;26.87;;;26.87;;
81006;SDS011;70472;47.592;17.640;2024-02-28T02:14:22;28.00;;;28.00;;
81006;SDS011;70472;47.592;17.640;2024-02-28T02:14:55;26.37;;;26.37;;
81006;SDS011;70472;47.592;17.640;2024-02-28T02:15:27;26.40;;;26.40;;
81006;SDS011;70472;47.592;17.640;2024-02-28T02:16:00;26.80;;;26.80;;
81006;SDS011;70472;47.592;17.640;2024-02-28T02:16:32;26.60;;;26.60;;
81006;SDS011;70472;47.592;17.640;2024-02-28T02:17:05;25.20;;;25.20;;
81006;SDS011;70472;47.592;17.640;2024-02-28T02:17:37;25.30;;;25.30;;
81006;SDS011;70472;47.592;17.640;2024-02-28T02:18:09;25.30;;;25.30;;
81006;SDS011;70472;47.592;17.640;2024-02-28T02:18:42;26.00;;;26.00;;
81006;SDS011;70472;47.592;17.640;2024-02-28T02:19:14;24.57;;;24.57;;
81006;SDS011;70472;47.592;17.640;2024-02-28T02:19:47;24.57;;;24.57;;
81006;SDS011;70472;47.592;17.640;2024-02-28T02:20:19;24.67;;;24.67;;
81006;SDS011;70472;47.592;17.640;2024-02-28T02:20:58;26.27;;;26.27;;
81006;SDS011;70472;47.592;17.640;2024-02-28T02:21:49;26.83;;;26.83;;
81006;SDS011;70472;47.592;17.640;2024-02-28T02:23:08;25.97;;;25.97;;
81006;SDS011;70472;47.592;17.640;2024-02-28T02:23:40;26.10;;;26.10;;
81006;SDS011;70472;47.592;17.640;2024-02-28T02:24:13;26.67;;;26.67;;
81006;SDS011;70472;47.592;17.640;2024-02-28T02:24:45;25.70;;;25.70;;
81006;SDS011;70472;47.592;17.640;2024-02-28T02:25:18;26.07;;;26.07;;
81006;SDS011;70472;47.592;17.640;2024-02-28T02:25:50;26.27;;;26.27;;
81006;SDS011;70472;47.592;17.640;2024-02-28T02:26:22;26.23;;;26.23;;
81006;SDS011;70472;47.592;17.640;2024-02-28T02:26:57;24.97;;;24.97;;
81006;SDS011;70472;47.592;17.640;2024-02-28T02:27:30;25.37;;;25.37;;
81006;SDS011;70472;47.592;17.640;2024-02-28T02:28:02;25.43;;;25.43;;
81006;SDS011;70472;47.592;17.640;2024-02-28T02:28:35;25.80;;;25.80;;
81006;SDS011;70472;47.592;17.640;2024-02-28T02:29:07;25.23;;;25.23;;
81006;SDS011;70472;47.592;17.640;2024-02-28T02:29:40;25.63;;;25.63;;
81006;SDS011;70472;47.592;17.640;2024-02-28T02:30:12;25.37;;;25.37;;
81006;SDS011;70472;47.592;17.640;2024-02-28T02:30:45;25.50;;;25.50;;
81006;SDS011;70472;47.592;17.640;2024-02-28T02:31:17;24.67;;;24.67;;
81006;SDS011;70472;47.592;17.640;2024-02-28T02:31:50;25.47;;;25.47;;
81006;SDS011;70472;47.592;17.640;2024-02-28T02:32:22;25.93;;;25.93;;
81006;SDS011;70472;47.592;17.640;2024-02-28T02:32:54;24.90;;;24.90;;
81006;SDS011;70472;47.592;17.640;2024-02-28T02:33:27;24.57;;;24.57;;
81006;SDS011;70472;47.592;17.640;2024-02-28T02:33:59;23.70;;;23.70;;
81006;SDS011;70472;47.592;17.640;2024-02-28T02:34:32;24.07;;;24.07;;
81006;SDS011;70472;47.592;17.640;2024-02-28T02:35:04;23.80;;;23.80;;
81006;SDS011;70472;47.592;17.640;2024-02-28T02:35:37;23.67;;;23.67;;
81006;SDS011;70472;47.592;17.640;2024-02-28T02:36:09;22.93;;;22.93;;
81006;SDS011;70472;47.592;17.640;2024-02-28T02:36:42;23.27;;;23.27;;
81006;SDS011;70472;47.592;17.640;2024-02-28T02:37:14;24.43;;;24.43;;
81006;SDS011;70472;47.592;17.640;2024-02-28T02:37:47;23.80;;;23.80;;
81006;SDS011;70472;47.592;17.640;2024-02-28T02:38:19;23.27;;;23.27;;
81006;SDS011;70472;47.592;17.640;2024-02-28T02:38:51;22.70;;;22.70;;
81006;SDS011;70472;47.592;17.640;2024-02-28T02:39:24;22.77;;;22.77;;
81006;SDS011;70472;47.592;17.640;2024-02-28T02:39:56;24.33;;;24.33;;
81006;SDS011;70472;47.592;17.640;2024-02-28T02:40:28;23.90;;;23.90;;
81006;SDS011;70472;47.592;17.640;2024-02-28T02:41:01;24.50;;;24.50;;
81006;SDS011;70472;47.592;17.640;2024-02-28T02:41:33;24.90;;;24.90;;
81006;SDS011;70472;47.592;17.640;2024-02-28T02:42:06;25.83;;;25.83;;
81006;SDS011;70472;47.592;17.640;2024-02-28T02:42:38;26.17;;;26.17;;
81006;SDS011;70472;47.592;17.640;2024-02-28T02:43:11;25.50;;;25.50;;
81006;SDS011;70472;47.592;17.640;2024-02-28T02:43:43;26.27;;;26.27;;
81006;SDS011;70472;47.592;17.640;2024-02-28T02:44:16;26.53;;;26.53;;
81006;SDS011;70472;47.592;17.640;2024-02-28T02:44:48;26.07;;;26.07;;
81006;SDS011;70472;47.592;17.640;2024-02-28T02:45:20;26.83;;;26.83;;
81006;SDS011;70472;47.592;17.640;2024-02-28T02:45:53;26.07;;;26.07;;
81006;SDS011;70472;47.592;17.640;2024-02-28T02:46:25;26.37;;;26.37;;
81006;SDS011;70472;47.592;17.640;2024-02-28T02:46:58;26.37;;;26.37;;
81006;SDS011;70472;47.592;17.640;2024-02-28T02:47:30;26.73;;;26.73;;
81006;SDS011;70472;47.592;17.640;2024-02-28T02:48:02;27.00;;;27.00;;
81006;SDS011;70472;47.592;17.640;2024-02-28T02:48:35;26.27;;;26.27;;
81006;SDS011;70472;47.592;17.640;2024-02-28T02:49:08;24.27;;;24.27;;
81006;SDS011;70472;47.592;17.640;2024-02-28T02:49:41;24.23;;;24.23;;
81006;SDS011;70472;47.592;17.640;2024-02-28T02:50:14;24.53;;;24.53;;
81006;SDS011;70472;47.592;17.640;2024-02-28T02:50:46;26.23;;;26.23;;
81006;SDS011;70472;47.592;17.640;2024-02-28T02:51:19;25.33;;;25.33;;
81006;SDS011;70472;47.592;17.640;2024-02-28T02:51:51;25.20;;;25.20;;
81006;SDS011;70472;47.592;17.640;2024-02-28T02:52:24;25.73;;;25.73;;
81006;SDS011;70472;47.592;17.640;2024-02-28T02:52:56;25.20;;;25.20;;
81006;SDS011;70472;47.592;17.640;2024-02-28T02:53:28;25.13;;;25.13;;
81006;SDS011;70472;47.592;17.640;2024-02-28T02:54:01;26.03;;;26.03;;
81006;SDS011;70472;47.592;17.640;2024-02-28T02:54:33;25.50;;;25.50;;
81006;SDS011;70472;47.592;17.640;2024-02-28T02:55:06;24.33;;;24.33;;
81006;SDS011;70472;47.592;17.640;2024-02-28T02:55:38;24.30;;;24.30;;
81006;SDS011;70472;47.592;17.640;2024-02-28T02:56:11;25.27;;;25.27;;
81006;SDS011;70472;47.592;17.640;2024-02-28T02:56:43;25.73;;;25.73;;
81006;SDS011;70472;47.592;17.640;2024-02-28T02:57:16;24.53;;;24.53;;
81006;SDS011;70472;47.592;17.640;2024-02-28T02:57:48;25.37;;;25.37;;
81006;SDS011;70472;47.592;17.640;2024-02-28T02:58:20;25.93;;;25.93;;
81006;SDS011;70472;47.592;17.640;2024-02-28T02:58:53;24.53;;;24.53;;
81006;SDS011;70472;47.592;17.640;2024-02-28T02:59:25;24.87;;;24.87;;
81006;SDS011;70472;47.592;17.640;2024-02-28T02:59:58;24.97;;;24.97;;
81006;SDS011;70472;47.592;17.640;2024-02-28T03:00:30;25.27;;;25.27;;
81006;SDS011;70472;47.592;17.640;2024-02-28T03:01:03;24.70;;;24.70;;
81006;SDS011;70472;47.592;17.640;2024-02-28T03:01:35;26.30;;;26.30;;
81006;SDS011;70472;47.592;17.640;2024-02-28T03:02:08;24.07;;;24.07;;
81006;SDS011;70472;47.592;17.640;2024-02-28T03:02:40;23.17;;;23.17;;
81006;SDS011;70472;47.592;17.640;2024-02-28T03:03:13;24.50;;;24.50;;
81006;SDS011;70472;47.592;17.640;2024-02-28T03:03:45;25.50;;;25.50;;
81006;SDS011;70472;47.592;17.640;2024-02-28T03:04:18;24.40;;;24.40;;
81006;SDS011;70472;47.592;17.640;2024-02-28T03:04:50;24.17;;;24.17;;
81006;SDS011;70472;47.592;17.640;2024-02-28T03:05:22;24.53;;;24.53;;
81006;SDS011;70472;47.592;17.640;2024-02-28T03:05:56;23.90;;;23.90;;
81006;SDS011;70472;47.592;17.640;2024-02-28T03:06:28;23.23;;;23.23;;
81006;SDS011;70472;47.592;17.640;2024-02-28T03:07:01;24.03;;;24.03;;
81006;SDS011;70472;47.592;17.640;2024-02-28T03:07:33;24.13;;;24.13;;
81006;SDS011;70472;47.592;17.640;2024-02-28T03:08:05;24.33;;;24.33;;
81006;SDS011;70472;47.592;17.640;2024-02-28T03:08:38;25.40;;;25.40;;
81006;SDS011;70472;47.592;17.640;2024-02-28T03:09:10;24.47;;;24.47;;
81006;SDS011;70472;47.592;17.640;2024-02-28T03:09:43;24.60;;;24.60;;